Mammoth Lakes, CA

9:14 AM PDT on October 25, 2014 (GMT -0700)
Mammoth Yosemite | Change Station
CLOSE
Current Station
Airport
Location: Mammoth,
Elevation: 7129 ft
Nearby Weather Stations
Active Advisory: Wind Advisory

Elev 7129 ft 37.62 °N, 118.84 °W | Updated 19 minutes ago

Clear
Clear
57 °F
Feels Like 57 °F
N
20
Wind Variable Wind from SSW
Gusts 31 mph

Today
High -- | Low -- °F
--% Chance of Precip.
Yesterday
High -- | Low -- °F
Precip. -- in
7:14 AM 6:05 PM
Waxing Crescent, 3% visible
Pressure 30.13 in
Visibility 10.0 miles
Clouds Clear
Dew Point 9 °F
Humidity 14%
Rainfall 0.00 in
Snow Depth Not available.
UV 1 out of 12
Pollen 2.00 out of 12
Air Quality Not available.
Flu Activity Sporadic
METAR KMMH 251555Z AUTO 20017G27KT 150V230 10SM CLR 14/M13 A3013 RMK AO1

More Conditions Fewer Conditions

Pressure 30.13 in
Visibility 10.0 miles
Clouds Clear
Dew Point 9 °F
Humidity 14%
Rainfall 0.00 in
Snow Depth Not available.
UV 1 out of 12
Pollen 2.00 out of 12
Air Quality Not available.
Flu Activity Sporadic
METAR KMMH 251555Z AUTO 20017G27KT 150V230 10SM CLR 14/M13 A3013 RMK AO1

More Conditions Fewer Conditions

10-Day Weather Forecast

Almanac

Astronomy

Oct. 25, 2014 Rise Set
Actual Time 7:14 AM PDT 6:05 PM PDT
Civil Twilight 6:47 AM PDT 6:32 PM PDT
Nautical Twilight 6:16 AM PDT 7:02 PM PDT
Astronomical Twilight 5:46 AM PDT 7:33 PM PDT
Moon 8:56 AM PDT 7:33 PM PDT
Length of Visible Light 11h 44m
Length of Day
10h 51m
Tomorrow will be 2m 13s shorter.
Waxing Crescent, 3% of the Moon is Illuminated
Today
Waxing Crescent
Oct 30
First Quarter
Nov 6
Full
Nov 14
Last Quarter
Nov 22
New

Today's Extremes

State Highs State Lows

Community

WunderPhotos

Upload Photos

1,764,887 photos uploaded!

Nearby

Snow Depth

Station Depth Elevation
Virginia Lakes Ridge 0 in 9200 ft
Leavitt Lake 1 in 9400 ft
Leavitt Meadows 1 in 7200 ft
Sonora Pass 0 in 8800 ft
Summit Meadow 1 in 9122 ft

Earthquake Activity

City Distance Mag. Time & Date
Lone Pine, California 116 miles 3.6 7:31 AM PDT
2014-10-25
Coalinga, California 144 miles 2.5 11:01 PM PDT
2014-10-24
Kettleman City, California 132 miles 2.5 9:08 AM PDT
2014-10-22
Minimum magnitude displayed is 2.5.

Coastal Water Temperatures

Place Temperature
No Stations Reporting

Nearby Weather Stations